Time;durP1;ratioP1;P1;durP2;ratioP2;P2;SDS_P1;SDS_P2;PMS_P1;PMS_P2;Temp;Humidity;BMP_temperature;BMP_pressure;BME280_temperature;BME280_humidity;BME280_pressure;Samples;Min_cycle;Max_cycle;Signal;HPM_P1;HPM_P2
2023/07/08 00:02:12;;;;;;;10.23;9.23;;;;;;;25.60;50.17;99424.50;5091863;28;20028;-79
2023/07/08 00:04:38;;;;;;;10.15;9.13;;;;;;;25.55;49.92;99418.31;5091605;28;20065;-78
2023/07/08 00:07:04;;;;;;;10.55;8.88;;;;;;;25.55;49.87;99424.53;5091639;28;20031;-77
2023/07/08 00:09:30;;;;;;;9.35;8.55;;;;;;;25.46;49.80;99401.88;5091830;28;20024;-77
2023/07/08 00:11:57;;;;;;;9.57;8.52;;;;;;;25.38;50.04;99391.66;5091587;28;20019;-77
2023/07/08 00:14:22;;;;;;;10.65;9.05;;;;;;;25.03;49.97;99330.47;5091679;28;20020;-76
2023/07/08 00:16:49;;;;;;;12.32;8.70;;;;;;;24.80;49.95;99294.09;5091737;28;20507;-77
2023/07/08 00:19:18;;;;;;;9.70;8.70;;;;;;;24.81;49.51;99286.78;5091988;28;20020;-77
2023/07/08 00:21:47;;;;;;;10.48;8.70;;;;;;;25.09;49.83;99315.84;5091705;28;20020;-77
2023/07/08 00:24:12;;;;;;;10.23;8.43;;;;;;;24.85;49.73;99287.84;5091959;28;20047;-77
2023/07/08 00:26:38;;;;;;;9.75;8.75;;;;;;;24.57;49.57;99252.34;5091778;28;20485;-77
2023/07/08 00:29:09;;;;;;;9.70;8.68;;;;;;;25.54;49.84;99382.34;5091815;28;20020;-76
2023/07/08 00:31:34;;;;;;;;;;;;;;;25.34;50.19;99385.19;5092242;28;20409;-75
2023/07/08 00:34:03;;;;;;;10.55;9.05;;;;;;;24.95;49.99;99309.41;5091761;28;19908;-77
2023/07/08 00:36:29;;;;;;;9.73;8.73;;;;;;;25.07;49.84;99318.00;5090465;28;20024;-77
2023/07/08 00:38:56;;;;;;;9.73;8.50;;;;;;;25.40;49.72;99364.34;5091741;28;20071;-77
2023/07/08 00:41:27;;;;;;;9.52;8.55;;;;;;;25.39;49.75;99368.13;5091391;28;20020;-76
2023/07/08 00:43:55;;;;;;;8.95;8.07;;;;;;;24.57;49.65;99230.75;5091701;28;20500;-78
2023/07/08 00:46:26;;;;;;;11.90;8.60;;;;;;;25.51;49.58;99374.00;5091481;28;20488;-77
2023/07/08 00:48:56;;;;;;;;;;;;;;;25.32;50.22;99368.44;5091730;28;20031;-78
2023/07/08 00:51:22;;;;;;;8.88;8.05;;;;;;;24.67;49.69;99263.09;5091248;28;19908;-78
2023/07/08 00:53:48;;;;;;;9.05;8.15;;;;;;;25.47;49.51;99364.84;5090968;28;20090;-78
2023/07/08 00:56:28;;;;;;;9.43;8.15;;;;;;;25.45;49.62;99362.41;5091170;28;20032;-79
2023/07/08 00:59:05;;;;;;;10.77;8.20;;;;;;;25.40;49.53;99358.94;5090933;28;20036;-76
2023/07/08 01:01:34;;;;;;;9.27;8.07;;;;;;;25.37;49.55;99360.28;5090961;28;20059;-78
2023/07/08 01:04:05;;;;;;;8.73;7.82;;;;;;;24.80;49.41;99269.78;5090979;28;20047;-77
2023/07/08 01:06:39;;;;;;;9.43;8.00;;;;;;;25.34;49.55;99350.84;5091064;28;20024;-77
2023/07/08 01:09:07;;;;;;;9.77;8.85;;;;;;;25.40;49.85;99377.84;5089815;28;20024;-77
2023/07/08 01:11:34;;;;;;;9.25;7.90;;;;;;;25.01;49.72;99289.41;5095010;28;20077;-76
2023/07/08 01:14:02;;;;;;;10.75;8.70;;;;;;;24.77;49.93;99269.53;5094903;28;20048;-77
2023/07/08 01:16:28;;;;;;;9.75;8.35;;;;;;;25.17;49.63;99328.75;5093681;28;20022;-78
2023/07/08 01:18:54;;;;;;;9.70;7.97;;;;;;;24.37;49.98;99207.31;5094997;28;20111;-76
2023/07/08 01:21:39;;;;;;;9.50;8.10;;;;;;;25.31;49.88;99364.91;5094606;28;20020;-77
2023/07/08 01:24:10;;;;;;;8.40;7.55;;;;;;;24.20;50.27;99203.31;5094832;28;20112;-77
2023/07/08 01:26:36;;;;;;;;;;;;;;;25.15;50.60;99374.16;5095160;28;20492;-78
2023/07/08 01:29:03;;;;;;;9.85;8.35;;;;;;;25.28;50.19;99380.88;5094656;28;20033;-77
2023/07/08 01:31:29;;;;;;;11.00;8.50;;;;;;;24.09;49.87;99199.84;5094670;28;20016;-77
2023/07/08 01:33:54;;;;;;;10.05;8.25;;;;;;;24.39;50.02;99232.16;5094900;28;20508;-77
2023/07/08 01:36:20;;;;;;;9.18;8.10;;;;;;;25.00;50.26;99333.72;5094841;28;20557;-77
2023/07/08 01:38:46;;;;;;;9.98;8.57;;;;;;;25.08;50.16;99362.84;5094664;28;20026;-77
2023/07/08 01:41:14;;;;;;;9.02;8.13;;;;;;;25.23;50.37;99391.69;5094652;28;20050;-77
2023/07/08 01:43:39;;;;;;;10.82;8.93;;;;;;;25.19;50.71;99377.13;5094688;28;20492;-76
2023/07/08 01:46:17;;;;;;;10.52;8.40;;;;;;;24.95;51.37;99358.03;5094464;28;20107;-78
2023/07/08 01:48:48;;;;;;;12.25;8.85;;;;;;;24.21;51.97;99240.00;5094521;28;20020;-77
2023/07/08 01:51:13;;;;;;;10.27;9.15;;;;;;;24.17;52.44;99271.31;5094246;28;20051;-77
2023/07/08 01:53:43;;;;;;;9.35;8.10;;;;;;;25.03;52.71;99395.28;5094494;28;20056;-78
2023/07/08 01:56:11;;;;;;;9.27;8.38;;;;;;;24.90;53.16;99382.34;5092761;28;20090;-77
2023/07/08 01:58:36;;;;;;;10.10;9.10;;;;;;;24.95;53.26;99407.44;5093916;28;20040;-78
2023/07/08 02:01:03;;;;;;;9.63;8.38;;;;;;;24.91;53.30;99406.38;5092803;28;20077;-78
2023/07/08 02:03:28;;;;;;;10.13;9.07;;;;;;;24.41;53.55;99339.81;5094346;28;20500;-78
2023/07/08 02:05:54;;;;;;;9.77;8.77;;;;;;;23.98;53.51;99279.16;5092887;28;20028;-78
2023/07/08 02:08:20;;;;;;;10.02;9.00;;;;;;;24.17;53.55;99315.28;5092908;28;20024;-77
2023/07/08 02:10:51;;;;;;;9.98;8.98;;;;;;;24.78;53.46;99417.75;5092712;28;20073;-78
2023/07/08 02:13:16;;;;;;;9.55;8.23;;;;;;;23.87;53.53;99274.88;5094229;28;20024;-78
2023/07/08 02:15:42;;;;;;;11.55;9.43;;;;;;;24.74;53.08;99402.38;5094088;28;20464;-78
2023/07/08 02:18:07;;;;;;;9.65;8.48;;;;;;;23.88;53.25;99282.69;5093933;28;20539;-76
2023/07/08 02:20:33;;;;;;;9.93;7.82;;;;;;;23.98;53.05;99323.13;5093492;28;20039;-75
2023/07/08 02:22:58;;;;;;;10.98;8.73;;;;;;;24.66;52.94;99419.94;5093052;28;20066;-78
2023/07/08 02:25:24;;;;;;;10.40;8.88;;;;;;;24.63;53.42;99458.28;5093762;28;20477;-77
2023/07/08 02:27:49;;;;;;;10.10;8.82;;;;;;;24.62;53.16;99433.19;5093568;28;20024;-77
2023/07/08 02:30:15;;;;;;;8.23;7.38;;;;;;;24.62;53.20;99425.09;5092467;28;20032;-78
2023/07/08 02:32:41;;;;;;;9.65;8.32;;;;;;;24.71;52.89;99430.75;5093872;28;20016;-77
2023/07/08 02:35:08;;;;;;;11.25;8.30;;;;;;;24.76;53.13;99438.03;5092246;28;20073;-78
2023/07/08 02:37:33;;;;;;;10.38;8.85;;;;;;;24.77;53.53;99439.63;5093432;28;20059;-75
2023/07/08 02:40:00;;;;;;;11.73;8.95;;;;;;;24.76;54.01;99438.03;5093038;28;20059;-78
2023/07/08 02:42:25;;;;;;;11.82;9.73;;;;;;;24.61;54.45;99418.06;5093029;28;20028;-79
2023/07/08 02:44:51;;;;;;;11.50;8.80;;;;;;;24.08;54.85;99333.91;5092983;28;20076;-76
2023/07/08 02:47:16;;;;;;;10.18;9.15;;;;;;;24.54;54.78;99412.16;5092948;28;20394;-78
2023/07/08 02:49:42;;;;;;;9.35;8.43;;;;;;;24.25;54.59;99366.00;5094162;28;20153;-76
2023/07/08 02:52:07;;;;;;;14.05;8.63;;;;;;;24.73;54.82;99439.38;5093421;28;20020;-76
2023/07/08 02:54:32;;;;;;;11.73;9.40;;;;;;;24.63;54.47;99426.72;5093459;28;20020;-76
2023/07/08 02:56:58;;;;;;;10.07;8.98;;;;;;;24.36;54.05;99393.78;5093196;28;20028;-77
2023/07/08 02:59:23;;;;;;;12.60;8.27;;;;;;;24.53;53.92;99434.81;5093572;28;20048;-77
2023/07/08 03:01:49;;;;;;;9.82;8.52;;;;;;;24.43;53.67;99413.22;5092975;28;20031;-76
2023/07/08 03:04:15;;;;;;;9.75;8.80;;;;;;;24.70;53.46;99442.63;5093042;28;20416;-77
2023/07/08 03:06:44;;;;;;;10.35;9.15;;;;;;;24.71;53.10;99453.16;5092897;28;20024;-77
2023/07/08 03:09:11;;;;;;;9.32;8.38;;;;;;;24.53;52.81;99424.03;5094612;28;20024;-78
2023/07/08 03:11:38;;;;;;;10.60;7.93;;;;;;;24.74;52.55;99465.31;5093744;28;20094;-79
2023/07/08 03:14:04;;;;;;;9.05;8.15;;;;;;;24.69;52.53;99458.00;5091783;28;20419;-77
2023/07/08 03:16:30;;;;;;;10.48;8.65;;;;;;;24.55;52.52;99440.75;5092915;28;20039;-77
2023/07/08 03:18:55;;;;;;;9.75;8.23;;;;;;;24.65;52.17;99451.53;5092660;28;20031;-78
2023/07/08 03:21:21;;;;;;;9.65;8.00;;;;;;;24.77;52.11;99464.75;5092607;28;20028;-77
2023/07/08 03:23:48;;;;;;;9.23;8.30;;;;;;;24.76;51.86;99482.03;5092604;28;20056;-78
2023/07/08 03:26:21;;;;;;;9.82;8.82;;;;;;;24.75;51.74;99493.09;5092575;28;20052;-77
2023/07/08 03:28:47;;;;;;;9.45;8.38;;;;;;;24.28;51.86;99411.34;5092602;28;20024;-78
2023/07/08 03:31:13;;;;;;;8.85;8.02;;;;;;;24.79;51.84;99473.41;5092437;28;20024;-77
2023/07/08 03:33:39;;;;;;;9.30;8.40;;;;;;;24.15;51.87;99392.16;5092125;28;20421;-78
2023/07/08 03:36:22;;;;;;;9.25;8.18;;;;;;;23.98;52.01;99377.06;5091010;28;20484;-78
2023/07/08 03:38:47;;;;;;;12.77;8.82;;;;;;;24.11;52.28;99407.28;5092345;28;20027;-77
2023/07/08 03:41:13;;;;;;;10.10;9.10;;;;;;;24.67;52.52;99489.06;5091850;28;20099;-77
2023/07/08 03:43:38;;;;;;;10.07;9.05;;;;;;;24.70;52.46;99481.25;5092118;28;20024;-78
2023/07/08 03:46:03;;;;;;;11.15;9.18;;;;;;;24.67;52.50;99491.78;5092362;28;20484;-77
2023/07/08 03:48:29;;;;;;;11.40;8.48;;;;;;;24.28;52.24;99426.72;5092266;28;20085;-78
2023/07/08 03:50:54;;;;;;;14.68;9.80;;;;;;;24.05;52.29;99387.59;5092048;28;20050;-77
2023/07/08 03:53:20;;;;;;;10.05;9.05;;;;;;;24.20;52.48;99411.84;5092091;28;20076;-79
2023/07/08 03:55:45;;;;;;;12.70;9.90;;;;;;;23.77;52.28;99360.03;5091762;28;20413;-77
2023/07/08 03:58:10;;;;;;;12.23;10.15;;;;;;;24.08;51.99;99397.84;5090478;28;20182;-77
2023/07/08 04:00:36;;;;;;;13.27;11.32;;;;;;;24.58;52.32;99488.00;5090710;28;20039;-77
2023/07/08 04:03:01;;;;;;;11.10;9.98;;;;;;;24.22;51.99;99419.69;5091968;28;20016;-77
2023/07/08 04:05:27;;;;;;;13.77;10.60;;;;;;;24.58;52.24;99466.41;5091923;28;20514;-78
2023/07/08 04:07:52;;;;;;;12.48;11.20;;;;;;;24.51;51.98;99480.16;5090563;28;20559;-77
2023/07/08 04:10:18;;;;;;;13.65;10.75;;;;;;;23.60;52.19;99346.00;5091701;28;20098;-78
2023/07/08 04:12:43;;;;;;;14.70;11.63;;;;;;;23.61;52.26;99344.13;5091569;28;20509;-77
2023/07/08 04:15:10;;;;;;;12.95;11.75;;;;;;;23.57;52.37;99334.97;5091633;28;20028;-76
2023/07/08 04:17:44;;;;;;;13.07;11.80;;;;;;;24.42;52.21;99489.06;5091662;28;20414;-78
2023/07/08 04:20:10;;;;;;;13.40;12.15;;;;;;;24.41;52.74;99477.44;5091793;28;20431;-77
2023/07/08 04:22:37;;;;;;;13.80;12.45;;;;;;;23.77;52.15;99367.31;5091849;28;20028;-78
2023/07/08 04:25:05;;;;;;;13.80;12.38;;;;;;;23.74;52.48;99371.38;5090293;28;20032;-75
2023/07/08 04:27:31;;;;;;;13.43;12.23;;;;;;;23.92;52.47;99388.94;5091788;28;20455;-77
2023/07/08 04:29:56;;;;;;;13.52;12.15;;;;;;;24.56;52.53;99488.28;5090225;28;20028;-76
2023/07/08 04:32:24;;;;;;;14.48;12.98;;;;;;;24.62;52.02;99489.06;5091661;28;20032;-77
2023/07/08 04:34:50;;;;;;;14.20;12.90;;;;;;;24.64;52.08;99476.13;5091565;28;20032;-77
2023/07/08 04:37:16;;;;;;;14.40;12.93;;;;;;;24.11;51.89;99386.50;5090200;28;20055;-77
2023/07/08 04:39:41;;;;;;;14.30;13.00;;;;;;;24.69;52.21;99470.72;5091494;28;20052;-77
2023/07/08 04:42:06;;;;;;;15.02;12.68;;;;;;;24.42;51.94;99422.41;5091173;28;20029;-77
2023/07/08 04:44:32;;;;;;;15.80;13.18;;;;;;;24.76;52.02;99473.13;5090603;28;20028;-77
2023/07/08 04:46:58;;;;;;;15.30;13.75;;;;;;;24.78;51.82;99468.25;5095621;28;20115;-79
2023/07/08 04:49:24;;;;;;;15.68;14.10;;;;;;;23.51;52.12;99266.75;5095492;28;20034;-77
2023/07/08 04:51:51;;;;;;;14.07;12.77;;;;;;;24.84;52.11;99467.97;5095389;28;20056;-77
2023/07/08 04:54:17;;;;;;;14.30;12.90;;;;;;;24.84;51.92;99456.38;5095207;28;20481;-77
2023/07/08 04:56:46;;;;;;;15.02;13.60;;;;;;;23.85;51.89;99302.09;5094165;28;20102;-77
2023/07/08 04:59:14;;;;;;;14.80;13.30;;;;;;;24.80;52.01;99439.91;5095208;28;20048;-77
2023/07/08 05:01:40;;;;;;;14.32;12.90;;;;;;;24.57;52.07;99398.09;5095206;28;20032;-78
2023/07/08 05:04:06;;;;;;;15.20;13.55;;;;;;;24.85;52.02;99441.78;5095344;28;20027;-77
2023/07/08 05:06:33;;;;;;;15.02;13.60;;;;;;;24.30;51.97;99367.91;5093654;28;20035;-77
2023/07/08 05:08:59;;;;;;;14.68;13.23;;;;;;;24.73;51.53;99430.47;5095111;28;20089;-78
2023/07/08 05:11:25;;;;;;;14.82;13.43;;;;;;;24.06;51.76;99343.34;5095204;28;20043;-78
2023/07/08 05:13:51;;;;;;;14.20;12.70;;;;;;;24.83;51.56;99468.25;5095301;28;20485;-77
2023/07/08 05:16:16;;;;;;;13.82;12.52;;;;;;;24.13;51.30;99335.78;5094936;28;20035;-78
2023/07/08 05:18:42;;;;;;;15.27;13.77;;;;;;;24.90;50.99;99469.59;5095068;28;20028;-77
2023/07/08 05:21:09;;;;;;;14.75;13.25;;;;;;;24.00;50.85;99320.97;5094849;28;20032;-78
2023/07/08 05:23:35;;;;;;;13.88;12.13;;;;;;;25.09;50.61;99498.75;5094897;28;20035;-77
2023/07/08 05:26:01;;;;;;;17.23;12.38;;;;;;;24.87;50.58;99456.63;5094846;28;20024;-77
2023/07/08 05:28:27;;;;;;;14.10;12.70;;;;;;;25.14;50.52;99513.06;5093510;28;20028;-78
2023/07/08 05:30:56;;;;;;;13.82;12.43;;;;;;;24.88;50.32;99487.16;5094803;28;20141;-77
2023/07/08 05:33:24;;;;;;;13.38;12.18;;;;;;;24.81;50.23;99451.50;5094885;28;20121;-77
2023/07/08 05:35:49;;;;;;;14.48;13.20;;;;;;;24.91;50.46;99484.72;5094599;28;20031;-77
2023/07/08 05:38:14;;;;;;;14.25;12.85;;;;;;;24.12;50.56;99363.03;5094663;28;20028;-78
2023/07/08 05:40:40;;;;;;;15.07;13.60;;;;;;;25.18;50.46;99522.22;5094446;28;20020;-76
2023/07/08 05:43:06;;;;;;;14.98;13.38;;;;;;;25.20;50.33;99516.53;5094583;28;20093;-77
2023/07/08 05:45:32;;;;;;;16.70;13.63;;;;;;;25.12;50.52;99520.63;5100612;28;20035;-78
2023/07/08 05:47:57;;;;;;;14.18;12.82;;;;;;;24.13;50.57;99364.66;5098902;28;20028;-79
2023/07/08 05:50:22;;;;;;;14.88;13.48;;;;;;;24.95;50.90;99484.97;5094573;28;20027;-76
2023/07/08 05:52:48;;;;;;;15.77;14.18;;;;;;;25.15;50.68;99521.97;5094396;28;20020;-79
2023/07/08 05:55:15;;;;;;;16.40;14.68;;;;;;;24.98;51.14;99493.38;5093982;28;20409;-76
2023/07/08 05:57:40;;;;;;;16.50;14.70;;;;;;;24.71;51.28;99458.56;5094155;28;20035;-78
2023/07/08 06:00:06;;;;;;;16.65;14.93;;;;;;;24.95;51.48;99507.38;5094167;28;20024;-78
2023/07/08 06:02:32;;;;;;;16.95;14.13;;;;;;;24.94;51.79;99507.66;5094145;28;20032;-78
2023/07/08 06:04:57;;;;;;;15.30;13.75;;;;;;;24.48;51.73;99429.41;5094015;28;20080;-78
2023/07/08 06:07:23;;;;;;;15.80;14.20;;;;;;;24.64;51.24;99443.72;5094025;28;20024;-77
2023/07/08 06:09:48;;;;;;;15.50;13.93;;;;;;;24.51;51.02;99430.75;5093998;28;20102;-78
2023/07/08 06:12:14;;;;;;;16.73;15.02;;;;;;;25.00;51.43;99503.91;5093888;28;20024;-77
2023/07/08 06:14:39;;;;;;;16.58;14.77;;;;;;;23.97;51.28;99320.69;5093782;28;20484;-79
2023/07/08 06:17:05;;;;;;;17.02;13.05;;;;;;;25.28;51.15;99514.13;5092474;28;20501;-78
2023/07/08 06:19:30;;;;;;;15.07;13.68;;;;;;;24.70;51.09;99443.44;5093931;28;20034;-77
2023/07/08 06:21:56;;;;;;;15.85;14.15;;;;;;;24.76;50.98;99443.44;5093445;28;20028;-78
2023/07/08 06:24:21;;;;;;;16.17;14.60;;;;;;;25.25;51.20;99506.53;5092357;28;20073;-76
2023/07/08 06:26:47;;;;;;;15.65;14.07;;;;;;;25.18;51.02;99495.19;5093738;28;20382;-79
2023/07/08 06:29:12;;;;;;;15.27;13.73;;;;;;;25.23;51.00;99492.50;5093573;28;20099;-76
2023/07/08 06:31:37;;;;;;;14.40;13.00;;;;;;;25.50;51.39;99524.59;5093371;28;20107;-78
2023/07/08 06:34:04;;;;;;;14.15;12.82;;;;;;;25.38;51.16;99488.94;5093279;28;20020;-77
2023/07/08 06:36:30;;;;;;;15.35;14.05;;;;;;;25.69;51.36;99530.22;5093289;28;20028;-77
2023/07/08 06:38:55;;;;;;;14.60;13.20;;;;;;;25.41;51.42;99490.28;5093290;28;20024;-78
2023/07/08 06:41:20;;;;;;;14.82;13.48;;;;;;;24.88;50.97;99400.72;5091626;28;20054;-76
2023/07/08 06:43:46;;;;;;;14.95;13.45;;;;;;;24.98;51.02;99430.44;5091963;28;20093;-77
2023/07/08 06:46:11;;;;;;;17.52;13.30;;;;;;;25.32;50.99;99476.53;5093438;28;20016;-76
2023/07/08 06:48:37;;;;;;;13.75;12.45;;;;;;;25.75;51.24;99548.03;5093283;28;20024;-79
2023/07/08 06:51:02;;;;;;;13.40;12.20;;;;;;;25.48;51.13;99507.03;5093281;28;20024;-78
2023/07/08 06:53:28;;;;;;;13.93;12.73;;;;;;;25.41;51.09;99501.91;5093300;28;20020;-79
2023/07/08 06:55:53;;;;;;;12.70;11.40;;;;;;;25.20;50.99;99457.91;5091775;28;20024;-77
2023/07/08 06:58:19;;;;;;;15.43;12.60;;;;;;;25.87;50.86;99545.81;5092992;28;20104;-77
2023/07/08 07:00:45;;;;;;;13.18;11.57;;;;;;;25.67;50.87;99520.75;5092961;28;20485;-76
2023/07/08 07:03:10;;;;;;;13.25;11.68;;;;;;;25.83;50.48;99539.34;5093233;28;20082;-77
2023/07/08 07:05:36;;;;;;;12.85;11.55;;;;;;;25.14;50.53;99421.19;5091673;28;20504;-78
2023/07/08 07:08:02;;;;;;;12.95;11.75;;;;;;;25.98;50.21;99538.44;5092464;28;20023;-77
2023/07/08 07:10:27;;;;;;;12.15;10.90;;;;;;;26.24;50.26;99585.13;5091614;28;20024;-76
2023/07/08 07:12:53;;;;;;;12.75;11.45;;;;;;;26.15;50.36;99546.22;5093019;28;20032;-79
2023/07/08 07:15:18;;;;;;;13.15;11.95;;;;;;;25.89;49.90;99483.31;5092828;28;20170;-77
2023/07/08 07:17:44;;;;;;;12.30;11.20;;;;;;;26.26;49.93;99551.28;5091505;28;20081;-77
2023/07/08 07:20:11;;;;;;;13.35;12.13;;;;;;;26.36;49.80;99566.69;5092701;28;20024;-75
2023/07/08 07:22:36;;;;;;;12.20;11.10;;;;;;;26.02;49.54;99490.03;5092425;28;20114;-77
2023/07/08 07:25:02;;;;;;;12.00;10.60;;;;;;;26.56;49.28;99549.47;5091156;28;20430;-76
2023/07/08 07:27:27;;;;;;;12.35;11.25;;;;;;;26.35;49.27;99497.38;5092360;28;20031;-76
2023/07/08 07:29:53;;;;;;;11.43;10.32;;;;;;;26.74;48.79;99542.56;5092509;28;20019;-77
2023/07/08 07:32:23;;;;;;;11.70;10.60;;;;;;;26.89;48.41;99542.44;5092643;28;20027;-78
2023/07/08 07:34:49;;;;;;;11.45;10.27;;;;;;;26.89;48.39;99547.88;5092441;28;20118;-78
2023/07/08 07:37:16;;;;;;;12.13;10.00;;;;;;;26.94;48.25;99549.72;5092389;28;20562;-77
2023/07/08 07:39:42;;;;;;;10.70;9.70;;;;;;;26.87;47.91;99536.50;5092066;28;20027;-76
2023/07/08 07:42:09;;;;;;;11.80;10.07;;;;;;;26.97;48.02;99560.78;5091826;28;20020;-78
2023/07/08 07:44:34;;;;;;;10.48;9.48;;;;;;;26.20;48.03;99427.09;5091985;28;20027;-76
2023/07/08 07:46:59;;;;;;;10.27;8.88;;;;;;;26.85;47.84;99522.44;5090724;28;20036;-77
2023/07/08 07:49:25;;;;;;;13.55;10.10;;;;;;;26.88;47.50;99514.53;5092141;28;20108;-76
2023/07/08 07:51:50;;;;;;;9.90;8.98;;;;;;;26.33;47.69;99431.09;5092145;28;20019;-77
2023/07/08 07:54:16;;;;;;;9.90;9.10;;;;;;;27.25;47.06;99561.09;5091870;28;20084;-78
2023/07/08 07:56:41;;;;;;;10.82;9.60;;;;;;;26.66;47.26;99470.03;5092034;28;20480;-77
2023/07/08 07:59:07;;;;;;;10.32;8.75;;;;;;;26.62;47.07;99445.44;5091855;28;20068;-77
2023/07/08 08:01:32;;;;;;;11.00;9.00;;;;;;;27.52;46.71;99567.59;5091501;28;20070;-76
2023/07/08 08:03:58;;;;;;;9.82;8.82;;;;;;;27.58;46.30;99546.63;5091629;28;20028;-77
2023/07/08 08:06:23;;;;;;;10.80;8.75;;;;;;;27.64;45.48;99550.94;5091889;28;20467;-77
2023/07/08 08:08:49;;;;;;;9.95;8.45;;;;;;;27.68;45.24;99565.53;5091902;28;20552;-78
2023/07/08 08:11:15;;;;;;;8.63;7.82;;;;;;;27.73;44.68;99570.09;5091828;28;20027;-77
2023/07/08 08:13:41;;;;;;;8.50;7.75;;;;;;;27.54;44.64;99542.91;5091951;28;20058;-78
2023/07/08 08:16:07;;;;;;;9.55;8.63;;;;;;;27.64;44.79;99559.06;5091674;28;20047;-77
2023/07/08 08:18:33;;;;;;;9.57;8.68;;;;;;;27.12;44.44;99503.75;5091255;28;20034;-77
2023/07/08 08:20:59;;;;;;;12.82;11.43;;;;;;;27.65;44.77;99549.84;5089389;28;20462;-77
2023/07/08 08:23:24;;;;;;;11.00;9.90;;;;;;;27.66;44.84;99542.50;5090003;28;20030;-75
2023/07/08 08:25:50;;;;;;;12.70;10.73;;;;;;;27.64;44.88;99548.22;5091498;28;20020;-77
2023/07/08 08:28:16;;;;;;;10.43;9.45;;;;;;;27.28;44.73;99492.75;5091642;28;20076;-77
2023/07/08 08:30:41;;;;;;;10.20;9.20;;;;;;;27.62;44.40;99533.34;5091311;28;20047;-77
2023/07/08 08:33:07;;;;;;;12.25;10.98;;;;;;;26.89;44.59;99401.56;5090179;28;20020;-77
2023/07/08 08:35:32;;;;;;;10.02;9.05;;;;;;;27.20;44.21;99439.97;5090042;28;20016;-77
2023/07/08 08:37:57;;;;;;;12.40;9.65;;;;;;;28.14;44.56;99554.88;5091422;28;20133;-78
2023/07/08 08:40:23;;;;;;;9.55;8.48;;;;;;;27.96;43.94;99506.00;5091276;28;20047;-76
2023/07/08 08:43:05;;;;;;;14.13;9.82;;;;;;;28.21;43.96;99538.22;5091607;28;20019;-77
2023/07/08 08:45:36;;;;;;;11.68;10.50;;;;;;;28.63;43.77;99564.50;5090099;28;20413;-78
2023/07/08 08:48:08;;;;;;;11.07;9.75;;;;;;;28.76;43.46;99555.59;5091146;28;20020;-77
2023/07/08 08:50:44;;;;;;;10.90;9.85;;;;;;;28.53;43.13;99515.78;5091386;28;20099;-75
2023/07/08 08:53:13;;;;;;;12.77;10.45;;;;;;;28.66;43.60;99568.53;5090972;28;20082;-75
2023/07/08 08:55:38;;;;;;;24.30;11.43;;;;;;;28.34;46.08;99567.41;5089830;28;20051;-77
2023/07/08 08:58:30;;;;;;;14.75;11.07;;;;;;;27.99;48.23;99576.81;5089768;28;20164;-76
2023/07/08 09:00:59;;;;;;;28.27;14.60;;;;;;;27.69;50.76;99583.44;5091078;28;20085;-77
2023/07/08 09:03:39;;;;;;;16.00;14.43;;;;;;;27.46;52.38;99576.03;5091090;28;20523;-74
2023/07/08 09:06:21;;;;;;;13.17;11.77;;;;;;;26.80;53.34;99501.63;5091552;28;20020;-74
2023/07/08 09:08:48;;;;;;;14.43;11.18;;;;;;;26.18;54.45;99432.81;5092767;28;20080;-77
2023/07/08 09:11:35;;;;;;;11.65;10.45;;;;;;;26.83;55.32;99573.38;5090739;28;20016;-76
2023/07/08 09:14:00;;;;;;;13.60;10.23;;;;;;;26.63;54.85;99555.38;5091561;28;20103;-76
2023/07/08 09:16:49;;;;;;;12.55;11.15;;;;;;;26.38;56.43;99553.66;5091438;28;20465;-77
2023/07/08 09:19:15;;;;;;;12.43;11.15;;;;;;;26.43;56.33;99571.78;5091256;28;20024;-76
2023/07/08 09:21:55;;;;;;;13.40;12.02;;;;;;;26.04;57.17;99520.31;5089660;28;20414;-76
2023/07/08 09:24:45;;;;;;;21.40;18.53;;;;;;;25.77;58.33;99490.94;5091010;28;20020;-74
2023/07/08 09:27:10;;;;;;;13.93;12.70;;;;;;;26.25;59.29;99576.75;5089938;28;20470;-74
2023/07/08 09:29:36;;;;;;;15.25;12.93;;;;;;;25.70;59.19;99485.03;5091023;28;20028;-77
2023/07/08 09:32:23;;;;;;;19.40;15.73;;;;;;;25.56;59.97;99428.84;5094130;28;20020;-76
2023/07/08 09:34:55;;;;;;;15.18;13.85;;;;;;;26.25;59.72;99549.66;5094568;28;20042;-77
2023/07/08 09:37:20;;;;;;;15.93;14.40;;;;;;;26.21;60.35;99570.25;5094315;28;20027;-74
2023/07/08 09:39:45;;;;;;;11.93;10.65;;;;;;;25.95;58.94;99598.53;5094431;28;20505;-78
2023/07/08 09:42:14;;;;;;;12.23;9.65;;;;;;;25.65;58.28;99611.06;5094377;28;20493;-73
2023/07/08 09:44:40;;;;;;;17.67;9.32;;;;;;;25.49;58.95;99617.59;5093308;28;20462;-73
2023/07/08 09:47:20;;;;;;;9.20;7.30;;;;;;;25.25;59.03;99611.94;5094391;28;20024;-73
2023/07/08 09:49:47;;;;;;;17.23;9.88;;;;;;;25.09;60.16;99623.03;5094272;28;20081;-76
2023/07/08 09:52:13;;;;;;;22.58;15.25;;;;;;;25.00;61.25;99636.28;5093064;28;20016;-74
2023/07/08 09:54:40;;;;;;;11.18;9.20;;;;;;;24.91;60.69;99627.06;5092821;28;20040;-74
2023/07/08 09:57:31;;;;;;;22.45;19.42;;;;;;;24.77;62.04;99653.78;5094290;28;20454;-76
2023/07/08 10:00:02;;;;;;;15.32;10.82;;;;;;;24.66;61.75;99636.75;5093168;28;20064;-76
2023/07/08 10:02:31;;;;;;;10.63;9.50;;;;;;;24.62;62.08;99603.28;5094265;28;20397;-76
2023/07/08 10:05:01;;;;;;;9.75;8.48;;;;;;;24.17;62.28;99520.31;5094384;28;20111;-75
2023/07/08 10:07:31;;;;;;;18.92;13.20;;;;;;;24.75;62.76;99593.03;5094144;28;20448;-75
2023/07/08 10:10:01;;;;;;;10.68;9.57;;;;;;;24.73;62.28;99593.28;5094071;28;20027;-76
2023/07/08 10:12:27;;;;;;;11.20;9.63;;;;;;;24.53;62.41;99559.00;5094070;28;20020;-75
2023/07/08 10:15:03;;;;;;;15.73;10.45;;;;;;;24.78;62.97;99595.19;5094133;28;20028;-76
2023/07/08 10:17:30;;;;;;;11.20;10.00;;;;;;;24.80;62.74;99558.72;5094113;28;20035;-75
2023/07/08 10:19:55;;;;;;;10.07;9.07;;;;;;;24.27;61.91;99469.09;5092761;28;20114;-74
2023/07/08 10:22:50;;;;;;;10.70;9.40;;;;;;;25.03;62.48;99571.69;5093987;28;20067;-75
2023/07/08 10:25:50;;;;;;;10.90;9.90;;;;;;;25.12;63.09;99574.66;5093789;28;20035;-75
2023/07/08 10:28:27;;;;;;;13.88;11.45;;;;;;;25.17;62.47;99574.66;5073658;28;20071;-75
2023/07/08 10:31:13;;;;;;;11.57;10.40;;;;;;;24.95;62.73;99511.97;5093669;28;20028;-75
2023/07/08 10:33:47;;;;;;;12.15;10.85;;;;;;;25.32;63.12;99571.94;5093579;28;20101;-77
2023/07/08 10:36:28;;;;;;;22.25;19.88;;;;;;;24.97;63.60;99502.56;5093597;28;20031;-75
2023/07/08 10:38:59;;;;;;;12.90;11.65;;;;;;;25.40;63.54;99575.16;5093483;28;20043;-74
2023/07/08 10:41:38;;;;;;;16.80;15.35;;;;;;;25.22;64.83;99544.91;5091977;28;20039;-75
2023/07/08 10:44:37;;;;;;;13.13;11.82;;;;;;;25.11;64.53;99513.59;5092676;28;20104;-75
2023/07/08 10:47:14;;;;;;;14.23;12.75;;;;;;;25.36;64.00;99558.69;5092689;28;20101;-75
2023/07/08 10:49:56;;;;;;;13.00;11.40;;;;;;;25.42;63.73;99567.59;5093344;28;20025;-76
2023/07/08 10:53:00;;;;;;;12.25;11.05;;;;;;;25.36;64.86;99557.88;5091940;28;20111;-72
2023/07/08 10:55:47;;;;;;;10.50;9.50;;;;;;;25.45;63.39;99550.81;5087225;28;20040;-75
2023/07/08 10:58:28;;;;;;;12.38;9.90;;;;;;;25.51;63.72;99555.13;5092752;28;20043;-75
2023/07/08 11:01:15;;;;;;;;;;;;;;;25.39;63.11;99538.41;5093461;28;20032;-76
2023/07/08 11:03:52;;;;;;;9.88;8.98;;;;;;;25.59;63.41;99532.94;5093335;28;19908;-75
2023/07/08 11:06:23;;;;;;;10.55;8.65;;;;;;;25.64;62.12;99452.59;5092958;28;20074;-76
2023/07/08 11:09:02;;;;;;;12.25;10.75;;;;;;;26.33;61.20;99506.88;5093081;28;20028;-76
2023/07/08 11:11:54;;;;;;;9.00;8.07;;;;;;;25.92;60.85;99415.94;5091687;28;20405;-75
2023/07/08 11:14:29;;;;;;;9.73;8.73;;;;;;;26.99;60.04;99495.50;5091831;28;20034;-77
2023/07/08 11:17:09;;;;;;;8.35;7.35;;;;;;;27.65;57.87;99505.63;5091785;28;20521;-76
2023/07/08 11:19:44;;;;;;;10.07;7.60;;;;;;;28.10;56.61;99493.31;5092774;28;20102;-75
2023/07/08 11:22:11;;;;;;;8.43;7.43;;;;;;;28.63;55.76;99510.16;5091341;28;20063;-77
2023/07/08 11:24:50;;;;;;;7.70;7.00;;;;;;;29.07;53.91;99514.31;5092577;28;20024;-75
2023/07/08 11:27:19;;;;;;;9.02;8.13;;;;;;;29.46;52.96;99521.22;5092540;28;20108;-73
2023/07/08 11:29:53;;;;;;;8.10;7.30;;;;;;;29.18;51.94;99414.34;5092663;28;20032;-74
2023/07/08 11:32:21;;;;;;;7.60;6.90;;;;;;;30.22;50.66;99522.31;5092324;28;20408;-76